Margaretville, NY (12455)

12:17 AM EST on December 11, 2016 (GMT -0500)
Margaretville, NY | | Change Station
Active Advisory: Winter Weather Advisory

Elev 1322 ft 42.15 °N, 74.65 °W | Updated 15 minutes ago

Mostly Cloudy
Mostly Cloudy
17.8 °F
Feels Like 18 °F
N
0.0
Wind Variable Wind from ENE
Gusts 2.0 mph

Today
High -- | Low -- °F
--% Chance of Precip.
Yesterday
High -- | Low -- °F
Precip. -- in
Pressure 30.38 in
Visibility 10.0 miles
Clouds Overcast 2800 ft
Windchill 18 °F
Dew Point 15 °F
Humidity 88%
Rainfall 0.00 in
Snow Depth Not available.
7:17 AM 4:26 PM
Waxing Gibbous, 89% visible
METAR KMSV 110455Z AUTO 27005KT 10SM OVC028 M07/M08 A3038 RMK AO1
Pressure 30.38 in
Visibility 10.0 miles
Clouds Overcast 2800 ft
Windchill 18 °F
Dew Point 15 °F
Humidity 88%
Rainfall 0.00 in
Snow Depth Not available.
7:17 AM 4:26 PM
Waxing Gibbous, 89% visible
METAR KMSV 110455Z AUTO 27005KT 10SM OVC028 M07/M08 A3038 RMK AO1

10-Day Weather Forecast

Almanac

Astronomy

Dec. 11, 2016 Rise Set
Actual Time
Civil Twilight
Nautical Twilight
Astronomical Twilight
Moon
Length of Visible Light
Length of Day
Tomorrow will be .
, % of the Moon is Illuminated

Today's Extremes

State Highs State Lows

Community

WunderPhotos

Upload Photos

1,956,705 photos uploaded!

WunderBlog® & News

Nearby

Air Quality

  Air Quality AQ Index Pollutant
Not available.

Snow Depth

Station Depth Elevation

Earthquake Activity

City Distance Mag. Time & Date
Minimum magnitude displayed is 2.5.

Coastal Water Temperatures

Place Temperature

Stations

Nearby Weather Stations

Station Location Temp. Windchill Dew Point Humidity Wind Precip. Elev Updated Type
                   

Watches & Warnings

Winter Weather Advisory
Issued: 2:39 PM EST Dec. 10, 2016 – National Weather Service

... Winter Weather Advisory in effect from noon Sunday to noon
Monday...

The National Weather Service in Binghamton has issued a Winter
Weather Advisory for moderate snow... which is in effect from noon
Sunday to noon Monday.

* Locations... all of central New York and Bradford, Susquehanna,
and northern Wayne counties in northeast Pennsylvania.

* Hazard types... moderate snow.

* Accumulations... snow accumulation of 3 to 6 inches.

* Timing... light snow moves in Sunday afternoon from southwest to
northeast. Snow will continue most of Sunday night when most of
the snow accumulation will be. The snow could mix with rain
late Sunday night and Monday morning before ending.

* Impacts... the moderate snow will create snow covered roads.

* Winds... south 5 to 15 mph with gusts up to 25 mph.

* Temperatures... from the middle 20s to lower 30s.

Precautionary/preparedness actions...

A Winter Weather Advisory means that periods of snow will cause
travel difficulties. Be prepared for slippery roads and limited
visibilities, and use caution while driving.